Flugplatz Augsburg (EDMA)

Hier findest Du alle Informationen zum Flugplatz Augsburg (EDMA).

Informationen für Piloten zum Flugplatz Augsburg

Hier findest Du alle relevanten Informationen, die Du als Pilot benötigst, um Augsburg anzufliegen.

Flugplatz: Augsburg ICAO-Code: EDMA
Frequenz Turm: 124,975 Mhz GAFOR Gebiet: 72
Frequenz Ground: 124,975 Mhz Mogas: nein
Platzrunde: - Landegebühr: -
Platzhöhe: - Sunrise: 06:17 Uhr UTC
Pisten: 07/25 - 1.280 m x 30 m, ASPH Sunset: 15:43 Uhr UTC

Flugwetter am Flugplatz Augsburg

Die METAR Information stammen aus EDMA.

METAR Code:
2019/10/28 18:20
EDMA 281820Z VRB02KT 9999 OVC037 08/06 Q1020

Temperatur: 3,0 °C Niederschlag: 1,5 mm (3h) Wind: 8,9 kt
Temperatur (min.): 1,7 °C Luftdruck: 1009 hPa Windrichtung: 220 °
Temperatur (max.): 4,0 °C Luftfeuchtigkeit: 86 % Bewölkung: 8/8

Flugschulen am Flugplatz Augsburg

Am Flugplatz Augsburg gibt es 2 Flugschulen.

Benachbarte Flugplätze und Flugschulen

Es gibt 16 weitere Flugplätze in einem Umkreis von 50 km um den Flugplatz Augsburg.

Jetzt anmelden

Passwort vergessen

Anzeige: Skymap
Umfrage Archiv

Lasst Ihr Euch bei Überlandflügen von FIS begleiten?

Ja, immer!
50 %
Ja, unregelmäßig!
33.3 %
Ja, aber nur selten!
16.7 %
Nein, nie!
0 %
Stimmen: 6 | Diskussion
Anzeige: Roland Aircraft
Statistik Alle Mitglieder

Aktuell sind 24 Besucher online, davon 1 Mitglied und 23 Gäste.


Mitglieder online:
stefan90 

Anzeige: VFR Sprechfunk Simulator


Anzeige: Pocket FMS